createdAt,value
2022-08-01T00:02:00.279Z,20.59
2022-08-01T00:04:45.687Z,20.56
2022-08-01T00:07:30.316Z,20.56
2022-08-01T00:10:15.150Z,20.57
2022-08-01T00:12:59.882Z,20.47
2022-08-01T00:15:54.196Z,20.46
2022-08-01T00:18:39.718Z,20.44
2022-08-01T00:21:24.507Z,20.45
2022-08-01T00:24:09.379Z,20.41
2022-08-01T00:27:00.441Z,20.40
2022-08-01T00:30:10.310Z,20.36
2022-08-01T00:32:49.980Z,20.33
2022-08-01T00:35:34.854Z,20.31
2022-08-01T00:38:19.540Z,20.32
2022-08-01T00:41:04.540Z,20.25
2022-08-01T00:43:49.419Z,20.24
2022-08-01T00:46:34.211Z,20.23
2022-08-01T00:49:19.008Z,20.18
2022-08-01T00:52:04.498Z,20.18
2022-08-01T00:54:49.542Z,20.18
2022-08-01T00:58:01.716Z,20.19
2022-08-01T01:00:53.928Z,20.21
2022-08-01T01:03:58.214Z,20.17
2022-08-01T01:06:44.315Z,20.14
2022-08-01T01:09:28.988Z,20.11
2022-08-01T01:12:13.872Z,20.14
2022-08-01T01:14:58.623Z,20.13
2022-08-01T01:17:50.932Z,20.05
2022-08-01T01:20:36.847Z,20.04
2022-08-01T01:23:21.569Z,20.01
2022-08-01T01:26:06.486Z,20.01
2022-08-01T01:28:51.233Z,19.97
2022-08-01T01:31:36.042Z,19.94
2022-08-01T01:34:21.018Z,19.90
2022-08-01T01:37:06.302Z,19.86
2022-08-01T01:39:54.384Z,19.86
2022-08-01T01:42:39.274Z,19.77
2022-08-01T01:45:23.971Z,19.73
2022-08-01T01:48:08.706Z,19.68
2022-08-01T01:50:53.650Z,19.62
2022-08-01T01:53:38.585Z,19.65
2022-08-01T01:56:23.345Z,19.63
2022-08-01T01:59:08.186Z,19.62
2022-08-01T02:02:06.126Z,19.61
2022-08-01T02:04:53.841Z,19.56
2022-08-01T02:07:38.581Z,19.58
2022-08-01T02:10:28.426Z,19.49
2022-08-01T02:13:13.897Z,19.48
2022-08-01T02:15:59.814Z,19.44
2022-08-01T02:18:45.434Z,19.43
2022-08-01T02:21:30.183Z,19.39
2022-08-01T02:24:14.942Z,19.40
2022-08-01T02:26:59.796Z,19.40
2022-08-01T02:29:44.411Z,19.34
2022-08-01T02:32:29.235Z,19.34
2022-08-01T02:35:13.982Z,19.30
2022-08-01T02:37:58.785Z,19.27
2022-08-01T02:40:43.699Z,19.22
2022-08-01T02:43:28.553Z,19.20
2022-08-01T02:46:13.313Z,19.16
2022-08-01T02:49:00.654Z,19.13
2022-08-01T02:51:45.929Z,19.09
2022-08-01T02:54:30.768Z,19.11
2022-08-01T02:57:15.501Z,19.10
2022-08-01T03:00:02.715Z,19.04
2022-08-01T03:02:47.978Z,19.01
2022-08-01T03:05:32.838Z,18.99
2022-08-01T03:08:17.700Z,19.00
2022-08-01T03:11:02.415Z,19.01
2022-08-01T03:13:47.173Z,19.02
2022-08-01T03:16:32.045Z,18.99
2022-08-01T03:19:16.816Z,18.97
2022-08-01T03:22:01.551Z,18.95
2022-08-01T03:24:46.377Z,18.95
2022-08-01T03:27:35.669Z,18.88
2022-08-01T03:30:20.475Z,18.86
2022-08-01T03:33:05.345Z,18.89
2022-08-01T03:35:50.253Z,18.81
2022-08-01T03:38:35.039Z,18.77
2022-08-01T03:41:19.798Z,18.76
2022-08-01T03:44:04.571Z,18.74
2022-08-01T03:46:49.252Z,18.73
2022-08-01T03:49:34.241Z,18.71
2022-08-01T03:52:19.282Z,18.71
2022-08-01T03:55:04.211Z,18.70
2022-08-01T03:57:48.945Z,18.70
2022-08-01T04:00:33.724Z,18.68
2022-08-01T04:03:18.561Z,18.68
2022-08-01T04:06:03.348Z,18.64
2022-08-01T04:08:48.099Z,18.67
2022-08-01T04:11:33.288Z,18.61
2022-08-01T04:14:18.203Z,18.62
2022-08-01T04:17:02.909Z,18.62
2022-08-01T04:19:47.785Z,18.61
2022-08-01T04:22:32.638Z,18.61
2022-08-01T04:25:21.810Z,18.63
2022-08-01T04:28:06.753Z,18.63
2022-08-01T04:30:51.410Z,18.64
2022-08-01T04:33:36.077Z,18.65
2022-08-01T04:36:20.766Z,18.65
2022-08-01T04:39:05.548Z,18.64
2022-08-01T04:41:50.299Z,18.59
2022-08-01T04:44:34.991Z,18.64
2022-08-01T04:47:19.801Z,18.66
2022-08-01T04:50:04.484Z,18.68
2022-08-01T04:52:49.341Z,18.71
2022-08-01T04:55:34.594Z,18.74
2022-08-01T04:58:21.426Z,18.75
2022-08-01T05:01:06.189Z,18.75
2022-08-01T05:03:50.922Z,18.78
2022-08-01T05:06:35.517Z,18.80
2022-08-01T05:09:20.299Z,18.82
2022-08-01T05:12:05.308Z,18.84
2022-08-01T05:14:50.374Z,18.81
2022-08-01T05:17:35.290Z,18.79
2022-08-01T05:20:20.034Z,18.80
2022-08-01T05:23:04.780Z,18.87
2022-08-01T05:25:57.170Z,18.91
2022-08-01T05:28:43.129Z,18.88
2022-08-01T05:31:27.965Z,18.87
2022-08-01T05:34:14.969Z,19.07
2022-08-01T05:37:00.518Z,23.36
2022-08-01T05:39:45.341Z,26.29
2022-08-01T05:42:30.041Z,28.40
2022-08-01T05:45:14.738Z,30.09
2022-08-01T05:47:59.551Z,31.46
2022-08-01T05:50:44.789Z,32.65
2022-08-01T05:53:29.642Z,33.52
2022-08-01T05:56:14.373Z,34.50
2022-08-01T05:58:59.187Z,35.37
2022-08-01T06:01:44.831Z,36.12
2022-08-01T06:04:30.128Z,36.68
2022-08-01T06:07:14.909Z,37.18
2022-08-01T06:09:59.671Z,37.64
2022-08-01T06:12:45.399Z,37.83
2022-08-01T06:15:30.016Z,38.36
2022-08-01T06:18:14.838Z,38.37
2022-08-01T06:20:59.982Z,38.24
2022-08-01T06:23:44.655Z,37.84
2022-08-01T06:26:29.480Z,38.31
2022-08-01T06:29:14.175Z,38.59
2022-08-01T06:31:58.997Z,38.87
2022-08-01T06:34:43.867Z,39.16
2022-08-01T06:37:28.680Z,39.72
2022-08-01T06:40:16.833Z,40.00
2022-08-01T06:43:02.894Z,40.24
2022-08-01T06:45:47.690Z,39.93
2022-08-01T06:48:32.373Z,40.65
2022-08-01T06:51:17.264Z,40.40
2022-08-01T06:54:01.860Z,40.72
2022-08-01T06:56:46.578Z,40.92
2022-08-01T06:59:31.410Z,41.32
2022-08-01T07:02:16.344Z,41.83
2022-08-01T07:05:01.570Z,42.42
2022-08-01T07:07:48.794Z,41.64
2022-08-01T07:10:33.786Z,42.23
2022-08-01T07:13:18.490Z,42.43
2022-08-01T07:16:03.370Z,42.67
2022-08-01T07:18:48.800Z,41.59
2022-08-01T07:21:39.736Z,41.69
2022-08-01T07:24:26.911Z,41.41
2022-08-01T07:27:24.099Z,40.98
2022-08-01T07:30:10.682Z,41.45
2022-08-01T07:32:55.555Z,41.69
2022-08-01T07:35:40.245Z,40.74
2022-08-01T07:38:24.948Z,38.80
2022-08-01T07:41:09.543Z,36.42
2022-08-01T07:43:58.018Z,33.90
2022-08-01T07:46:45.609Z,32.48
2022-08-01T07:49:30.466Z,31.60
2022-08-01T07:52:16.032Z,30.71
2022-08-01T07:55:01.185Z,30.23
2022-08-01T07:57:46.005Z,29.67
2022-08-01T08:00:31.209Z,29.29
2022-08-01T08:03:15.942Z,28.94
2022-08-01T08:06:00.771Z,28.95
2022-08-01T08:08:45.483Z,29.03
2022-08-01T08:11:30.184Z,28.92
2022-08-01T08:14:14.874Z,28.71
2022-08-01T08:16:59.717Z,28.48
2022-08-01T08:19:47.103Z,28.06
2022-08-01T08:22:31.792Z,27.88
2022-08-01T08:25:17.197Z,27.65
2022-08-01T08:28:01.974Z,27.69
2022-08-01T08:30:46.736Z,27.54
2022-08-01T08:33:31.964Z,27.38
2022-08-01T08:36:16.815Z,27.36
2022-08-01T08:39:02.517Z,27.22
2022-08-01T08:41:49.340Z,27.16
2022-08-01T08:44:35.074Z,26.87
2022-08-01T08:47:20.886Z,26.48
2022-08-01T08:50:05.776Z,26.46
2022-08-01T08:52:50.533Z,26.69
2022-08-01T08:55:35.524Z,26.91
2022-08-01T08:58:40.693Z,26.89
2022-08-01T09:01:25.530Z,26.97
2022-08-01T09:04:10.973Z,26.88
2022-08-01T09:06:55.977Z,26.73
2022-08-01T09:09:41.821Z,26.73
2022-08-01T09:12:26.971Z,26.80
2022-08-01T09:15:11.629Z,26.79
2022-08-01T09:17:56.572Z,26.88
2022-08-01T09:20:41.368Z,26.78
2022-08-01T09:23:28.148Z,26.89
2022-08-01T09:26:12.944Z,27.19
2022-08-01T09:28:57.635Z,27.44
2022-08-01T09:31:47.212Z,27.30
2022-08-01T09:34:32.855Z,26.91
2022-08-01T09:37:18.020Z,26.86
2022-08-01T09:40:08.990Z,26.80
2022-08-01T09:42:53.593Z,26.96
2022-08-01T09:45:41.648Z,27.18
2022-08-01T09:48:30.194Z,27.40
2022-08-01T09:51:57.822Z,27.58
2022-08-01T09:54:20.295Z,27.66
2022-08-01T09:57:05.756Z,27.63
2022-08-01T09:59:59.869Z,27.66
2022-08-01T10:02:46.090Z,27.75
2022-08-01T10:05:30.814Z,27.93
2022-08-01T10:08:23.238Z,28.07
2022-08-01T10:11:08.236Z,28.25
2022-08-01T10:13:53.592Z,27.88
2022-08-01T10:16:40.259Z,28.03
2022-08-01T10:19:25.026Z,28.11
2022-08-01T10:22:14.432Z,27.99
2022-08-01T10:25:01.223Z,28.02
2022-08-01T10:27:45.994Z,28.13
2022-08-01T10:30:30.847Z,28.26
2022-08-01T10:33:49.943Z,28.15
2022-08-01T10:36:20.993Z,27.99
2022-08-01T10:39:07.886Z,28.09
2022-08-01T10:41:52.812Z,28.31
2022-08-01T10:44:38.937Z,28.36
2022-08-01T10:47:27.075Z,28.41
2022-08-01T10:50:28.746Z,28.52
2022-08-01T10:53:16.295Z,28.74
2022-08-01T10:56:07.954Z,28.76
2022-08-01T10:58:53.084Z,28.26
2022-08-01T11:01:38.291Z,28.38
2022-08-01T11:04:23.671Z,28.33
2022-08-01T11:07:10.337Z,28.11
2022-08-01T11:09:55.670Z,28.21
2022-08-01T11:12:40.449Z,28.25
2022-08-01T11:15:30.133Z,28.36
2022-08-01T11:18:15.727Z,28.52
2022-08-01T11:21:56.431Z,28.45
2022-08-01T11:24:05.300Z,28.48
2022-08-01T11:26:50.070Z,28.57
2022-08-01T11:29:35.946Z,28.70
2022-08-01T11:32:22.127Z,29.04
2022-08-01T11:35:06.959Z,29.30
2022-08-01T11:37:51.503Z,29.31
2022-08-01T11:40:37.435Z,29.35
2022-08-01T11:43:22.134Z,29.54
2022-08-01T11:46:06.923Z,29.86
2022-08-01T11:48:53.230Z,29.93
2022-08-01T11:51:38.995Z,30.12
2022-08-01T11:54:35.750Z,30.20
2022-08-01T11:57:23.239Z,30.08
2022-08-01T12:00:09.016Z,30.17
2022-08-01T12:02:54.248Z,30.05
2022-08-01T12:05:43.312Z,29.93
2022-08-01T12:08:28.713Z,30.14
2022-08-01T12:11:13.568Z,30.22
2022-08-01T12:13:58.811Z,30.03
2022-08-01T12:16:43.547Z,29.99
2022-08-01T12:19:28.544Z,29.87
2022-08-01T12:22:13.544Z,29.65
2022-08-01T12:24:58.521Z,29.68
2022-08-01T12:27:45.750Z,29.96
2022-08-01T12:30:30.510Z,30.06
2022-08-01T12:33:15.316Z,30.00
2022-08-01T12:35:59.959Z,30.21
2022-08-01T12:38:44.616Z,30.25
2022-08-01T12:41:29.607Z,30.35
2022-08-01T12:44:14.474Z,30.38
2022-08-01T12:46:59.263Z,30.41
2022-08-01T12:49:43.965Z,30.29
2022-08-01T12:52:28.750Z,30.38
2022-08-01T12:55:13.480Z,30.59
2022-08-01T12:57:58.374Z,30.68
2022-08-01T13:00:43.027Z,30.80
2022-08-01T13:03:27.875Z,30.90
2022-08-01T13:06:12.622Z,30.88
2022-08-01T13:08:57.368Z,30.67
2022-08-01T13:11:59.083Z,30.55
2022-08-01T13:14:46.871Z,30.54
2022-08-01T13:17:31.603Z,30.24
2022-08-01T13:20:16.279Z,30.03
2022-08-01T13:23:01.029Z,29.96
2022-08-01T13:25:45.707Z,29.99
2022-08-01T13:28:30.518Z,29.87
2022-08-01T13:31:15.413Z,29.59
2022-08-01T13:34:00.676Z,29.82
2022-08-01T13:36:49.471Z,29.52
2022-08-01T13:39:34.554Z,29.67
2022-08-01T13:42:19.620Z,30.01
2022-08-01T13:45:04.543Z,30.10
2022-08-01T13:48:12.310Z,29.83
2022-08-01T13:51:21.394Z,29.64
2022-08-01T13:54:06.682Z,29.79
2022-08-01T13:56:52.843Z,29.95
2022-08-01T13:59:37.615Z,29.61
2022-08-01T14:02:22.384Z,29.36
2022-08-01T14:05:07.202Z,29.49
2022-08-01T14:07:56.707Z,29.47
2022-08-01T14:10:41.954Z,29.26
2022-08-01T14:13:36.769Z,29.32
2022-08-01T14:16:22.279Z,29.40
2022-08-01T14:19:07.081Z,29.55
2022-08-01T14:21:52.434Z,29.75
2022-08-01T14:24:38.863Z,29.89
2022-08-01T14:27:23.996Z,29.65
2022-08-01T14:30:08.681Z,29.57
2022-08-01T14:32:53.277Z,29.73
2022-08-01T14:36:01.702Z,29.71
2022-08-01T14:38:42.958Z,29.59
2022-08-01T14:41:31.191Z,29.66
2022-08-01T14:44:15.849Z,29.64
2022-08-01T14:47:00.528Z,29.52
2022-08-01T14:49:46.362Z,29.27
2022-08-01T14:52:31.635Z,29.22
2022-08-01T14:55:16.349Z,29.21
2022-08-01T14:58:01.320Z,28.98
2022-08-01T15:00:46.114Z,29.07
2022-08-01T15:03:30.926Z,29.04
2022-08-01T15:06:15.607Z,28.93
2022-08-01T15:09:00.442Z,28.93
2022-08-01T15:11:53.562Z,28.97
2022-08-01T15:14:38.359Z,29.09
2022-08-01T15:17:23.442Z,29.06
2022-08-01T15:20:08.607Z,29.08
2022-08-01T15:22:53.242Z,29.11
2022-08-01T15:25:41.472Z,28.82
2022-08-01T15:28:26.763Z,28.81
2022-08-01T15:31:14.231Z,28.76
2022-08-01T15:33:59.428Z,28.79
2022-08-01T15:36:46.814Z,28.95
2022-08-01T15:39:33.587Z,29.07
2022-08-01T15:42:19.982Z,29.07
2022-08-01T15:45:13.317Z,29.03
2022-08-01T15:48:01.597Z,29.02
2022-08-01T15:50:46.385Z,28.96
2022-08-01T15:53:31.156Z,29.02
2022-08-01T15:56:16.419Z,29.04
2022-08-01T15:59:01.327Z,29.00
2022-08-01T16:01:46.204Z,28.92
2022-08-01T16:04:35.718Z,29.01
2022-08-01T16:07:24.191Z,28.88
2022-08-01T16:10:09.089Z,28.57
2022-08-01T16:12:54.371Z,28.53
2022-08-01T16:15:39.312Z,28.45
2022-08-01T16:18:24.503Z,28.21
2022-08-01T16:21:09.266Z,28.18
2022-08-01T16:23:54.038Z,28.13
2022-08-01T16:26:38.898Z,28.08
2022-08-01T16:29:23.808Z,28.09
2022-08-01T16:32:12.988Z,28.11
2022-08-01T16:35:01.363Z,28.11
2022-08-01T16:37:46.518Z,28.09
2022-08-01T16:40:31.219Z,28.07
2022-08-01T16:43:25.005Z,28.12
2022-08-01T16:46:09.603Z,28.21
2022-08-01T16:48:54.334Z,28.16
2022-08-01T16:51:48.065Z,28.12
2022-08-01T16:54:33.359Z,28.17
2022-08-01T16:57:18.152Z,28.16
2022-08-01T17:00:02.916Z,28.21
2022-08-01T17:02:47.642Z,28.15
2022-08-01T17:05:32.707Z,28.08
2022-08-01T17:08:17.460Z,27.91
2022-08-01T17:11:02.230Z,27.83
2022-08-01T17:13:50.025Z,27.68
2022-08-01T17:16:34.728Z,27.69
2022-08-01T17:19:19.449Z,27.66
2022-08-01T17:22:11.705Z,27.47
2022-08-01T17:24:56.515Z,27.50
2022-08-01T17:27:41.192Z,27.45
2022-08-01T17:30:26.532Z,27.45
2022-08-01T17:33:11.390Z,27.42
2022-08-01T17:35:56.291Z,27.31
2022-08-01T17:38:41.100Z,27.28
2022-08-01T17:41:25.901Z,27.17
2022-08-01T17:44:10.782Z,27.05
2022-08-01T17:46:55.567Z,26.95
2022-08-01T17:49:55.822Z,26.92
2022-08-01T17:52:40.698Z,26.82
2022-08-01T17:55:54.002Z,26.77
2022-08-01T17:58:49.058Z,26.70
2022-08-01T18:01:35.575Z,26.46
2022-08-01T18:04:20.337Z,26.42
2022-08-01T18:07:05.886Z,26.44
2022-08-01T18:09:51.168Z,26.42
2022-08-01T18:12:36.274Z,26.44
2022-08-01T18:15:26.923Z,26.43
2022-08-01T18:18:12.140Z,26.43
2022-08-01T18:20:57.664Z,26.42
2022-08-01T18:23:44.319Z,26.43
2022-08-01T18:26:37.116Z,26.36
2022-08-01T18:29:23.149Z,26.37
2022-08-01T18:32:26.815Z,26.42
2022-08-01T18:35:14.049Z,26.41
2022-08-01T18:37:59.497Z,26.39
2022-08-01T18:40:47.307Z,26.35
2022-08-01T18:43:32.029Z,26.35
2022-08-01T18:46:16.724Z,26.39
2022-08-01T18:49:01.705Z,26.30
2022-08-01T18:51:46.924Z,26.25
2022-08-01T18:54:31.697Z,26.19
2022-08-01T18:57:16.460Z,26.22
2022-08-01T19:00:05.730Z,26.20
2022-08-01T19:02:50.515Z,26.14
2022-08-01T19:05:36.065Z,26.05
2022-08-01T19:08:21.055Z,25.99
2022-08-01T19:11:05.739Z,25.97
2022-08-01T19:13:50.453Z,25.95
2022-08-01T19:16:35.287Z,25.90
2022-08-01T19:19:27.559Z,25.84
2022-08-01T19:22:13.366Z,25.78
2022-08-01T19:24:58.773Z,25.70
2022-08-01T19:27:43.554Z,25.62
2022-08-01T19:30:28.389Z,25.50
2022-08-01T19:33:13.259Z,25.40
2022-08-01T19:35:58.006Z,25.24
2022-08-01T19:38:42.740Z,25.22
2022-08-01T19:41:27.505Z,25.13
2022-08-01T19:44:12.412Z,25.07
2022-08-01T19:46:57.124Z,24.98
2022-08-01T19:49:41.960Z,24.90
2022-08-01T19:52:27.032Z,24.79
2022-08-01T19:55:11.790Z,24.70
2022-08-01T19:58:24.411Z,24.65
2022-08-01T20:01:01.310Z,24.62
2022-08-01T20:03:46.137Z,24.44
2022-08-01T20:06:31.215Z,24.29
2022-08-01T20:09:16.156Z,24.27
2022-08-01T20:12:00.869Z,24.31
2022-08-01T20:14:45.812Z,24.24
2022-08-01T20:17:30.401Z,24.13
2022-08-01T20:20:15.230Z,24.13
2022-08-01T20:23:00.032Z,23.99
2022-08-01T20:25:44.792Z,23.91
2022-08-01T20:28:29.599Z,23.96
2022-08-01T20:31:14.519Z,23.96
2022-08-01T20:33:59.249Z,24.01
2022-08-01T20:36:54.397Z,24.05
2022-08-01T20:39:39.693Z,23.97
2022-08-01T20:42:27.862Z,23.87
2022-08-01T20:45:18.073Z,23.79
2022-08-01T20:48:03.405Z,23.77
2022-08-01T20:50:54.278Z,23.80
2022-08-01T20:53:39.350Z,23.90
2022-08-01T20:56:24.188Z,23.86
2022-08-01T20:59:08.887Z,23.75
2022-08-01T21:01:53.555Z,23.61
2022-08-01T21:04:38.252Z,23.52
2022-08-01T21:07:23.513Z,23.52
2022-08-01T21:10:08.218Z,23.46
2022-08-01T21:12:52.936Z,23.29
2022-08-01T21:15:37.758Z,23.24
2022-08-01T21:18:22.590Z,23.16
2022-08-01T21:21:07.522Z,23.10
2022-08-01T21:23:55.315Z,23.03
2022-08-01T21:26:40.076Z,22.84
2022-08-01T21:29:25.000Z,22.83
2022-08-01T21:32:09.686Z,22.74
2022-08-01T21:34:54.540Z,22.72
2022-08-01T21:37:39.311Z,22.73
2022-08-01T21:40:24.174Z,22.77
2022-08-01T21:43:08.851Z,22.74
2022-08-01T21:45:57.697Z,22.76
2022-08-01T21:48:43.655Z,22.87
2022-08-01T21:51:28.353Z,22.92
2022-08-01T21:54:13.222Z,23.02
2022-08-01T21:56:57.891Z,23.04
2022-08-01T21:59:42.659Z,22.90
2022-08-01T22:02:27.432Z,22.77
2022-08-01T22:05:12.778Z,22.68
2022-08-01T22:07:57.546Z,22.64
2022-08-01T22:10:42.305Z,22.81
2022-08-01T22:13:27.351Z,23.05
2022-08-01T22:16:12.015Z,23.05
2022-08-01T22:18:56.796Z,23.00
2022-08-01T22:21:41.516Z,22.92
2022-08-01T22:24:26.542Z,22.85
2022-08-01T22:27:12.284Z,22.71
2022-08-01T22:29:57.423Z,22.68
2022-08-01T22:32:42.351Z,22.55
2022-08-01T22:35:27.141Z,22.44
2022-08-01T22:38:12.037Z,22.26
2022-08-01T22:40:56.821Z,22.31
2022-08-01T22:43:42.056Z,22.42
2022-08-01T22:46:26.823Z,22.44
2022-08-01T22:49:11.631Z,22.70
2022-08-01T22:51:56.905Z,22.95
2022-08-01T22:54:41.737Z,23.18
2022-08-01T22:57:26.627Z,23.05
2022-08-01T23:00:12.321Z,23.02
2022-08-01T23:02:57.090Z,23.06
2022-08-01T23:05:41.819Z,22.91
2022-08-01T23:08:37.587Z,23.09
2022-08-01T23:11:22.311Z,23.38
2022-08-01T23:14:07.198Z,23.37
2022-08-01T23:16:51.878Z,23.21
2022-08-01T23:19:36.678Z,22.99
2022-08-01T23:22:21.341Z,22.79
2022-08-01T23:25:06.720Z,22.59
2022-08-01T23:28:05.110Z,22.59
2022-08-01T23:30:50.863Z,22.57
2022-08-01T23:33:35.562Z,22.71
2022-08-01T23:36:20.482Z,22.57
2022-08-01T23:39:05.229Z,22.49
2022-08-01T23:41:58.514Z,22.34
2022-08-01T23:44:52.953Z,22.08
2022-08-01T23:47:37.681Z,21.99
2022-08-01T23:50:22.546Z,22.04
2022-08-01T23:53:07.661Z,22.49
2022-08-01T23:55:53.378Z,22.61
2022-08-01T23:58:39.308Z,22.50
